createdAt,value
2023-02-11T00:02:01.073Z,-5.37
2023-02-11T00:04:27.947Z,-5.51
2023-02-11T00:06:55.362Z,-5.47
2023-02-11T00:09:22.378Z,-5.40
2023-02-11T00:11:49.277Z,-5.51
2023-02-11T00:14:16.139Z,-5.44
2023-02-11T00:16:43.056Z,-5.52
2023-02-11T00:19:09.959Z,-5.62
2023-02-11T00:21:36.883Z,-5.63
2023-02-11T00:24:04.255Z,-5.76
2023-02-11T00:26:33.919Z,-5.70
2023-02-11T00:29:01.656Z,-5.64
2023-02-11T00:31:31.675Z,-5.82
2023-02-11T00:33:58.674Z,-5.77
2023-02-11T00:36:27.668Z,-5.83
2023-02-11T00:38:55.790Z,-5.94
2023-02-11T00:41:23.570Z,-5.93
2023-02-11T00:43:51.439Z,-5.85
2023-02-11T00:46:19.163Z,-5.95
2023-02-11T00:48:46.017Z,-5.87
2023-02-11T00:51:13.046Z,-5.92
2023-02-11T00:53:39.900Z,-5.88
2023-02-11T00:56:07.988Z,-5.88
2023-02-11T00:58:35.296Z,-6.03
2023-02-11T01:01:02.238Z,-5.95
2023-02-11T01:03:29.205Z,-6.00
2023-02-11T01:05:56.212Z,-6.13
2023-02-11T01:08:23.148Z,-6.21
2023-02-11T01:10:58.707Z,-6.24
2023-02-11T01:13:27.187Z,-6.32
2023-02-11T01:15:54.720Z,-6.19
2023-02-11T01:18:21.790Z,-6.23
2023-02-11T01:20:49.033Z,-6.21
2023-02-11T01:23:16.658Z,-6.26
2023-02-11T01:25:44.360Z,-6.28
2023-02-11T01:28:19.969Z,-6.14
2023-02-11T01:30:47.064Z,-6.14
2023-02-11T01:33:14.015Z,-6.16
2023-02-11T01:35:41.513Z,-6.30
2023-02-11T01:38:14.390Z,-6.42
2023-02-11T01:40:41.253Z,-6.43
2023-02-11T01:43:11.306Z,-6.42
2023-02-11T01:45:47.359Z,-6.49
2023-02-11T01:48:22.825Z,-6.52
2023-02-11T01:50:53.845Z,-6.55
2023-02-11T01:53:40.373Z,-6.53
2023-02-11T01:56:29.766Z,-6.45
2023-02-11T01:59:03.211Z,-6.50
2023-02-11T02:01:33.934Z,-6.46
2023-02-11T02:04:05.310Z,-6.44
2023-02-11T02:06:56.172Z,-6.42
2023-02-11T02:09:30.843Z,-6.46
2023-02-11T02:11:57.756Z,-6.61
2023-02-11T02:14:26.649Z,-6.62
2023-02-11T02:16:53.480Z,-6.65
2023-02-11T02:19:23.354Z,-6.67
2023-02-11T02:22:10.462Z,-6.69
2023-02-11T02:25:01.274Z,-6.66
2023-02-11T02:28:12.956Z,-6.62
2023-02-11T02:30:55.745Z,-6.63
2023-02-11T02:33:28.825Z,-6.58
2023-02-11T02:36:03.116Z,-6.55
2023-02-11T02:38:32.577Z,-6.57
2023-02-11T02:41:10.571Z,-6.48
2023-02-11T02:43:43.990Z,-6.43
2023-02-11T02:46:16.848Z,-6.43
2023-02-11T02:48:44.341Z,-6.39
2023-02-11T02:51:32.783Z,-6.46
2023-02-11T02:54:14.066Z,-6.36
2023-02-11T02:57:02.493Z,-6.44
2023-02-11T03:00:14.525Z,-6.51
2023-02-11T03:02:50.120Z,-6.52
2023-02-11T03:06:04.666Z,-6.53
2023-02-11T03:09:01.128Z,-6.49
2023-02-11T03:11:29.342Z,-6.54
2023-02-11T03:28:31.048Z,-6.72
2023-02-11T03:31:31.084Z,-6.58
2023-02-11T03:34:03.989Z,-6.46
2023-02-11T03:36:39.196Z,-6.42
2023-02-11T03:39:07.422Z,-6.43
2023-02-11T03:41:35.660Z,-6.27
2023-02-11T03:44:04.396Z,-6.36
2023-02-11T03:46:35.662Z,-6.32
2023-02-11T03:49:13.046Z,-6.32
2023-02-11T03:51:40.669Z,-6.44
2023-02-11T03:54:14.224Z,-6.30
2023-02-11T03:56:53.834Z,-6.45
2023-02-11T03:59:20.841Z,-6.41
2023-02-11T04:01:47.921Z,-6.27
2023-02-11T04:04:14.889Z,-6.57
2023-02-11T04:06:41.945Z,-6.45
2023-02-11T04:09:09.545Z,-6.53
2023-02-11T04:11:36.561Z,-6.52
2023-02-11T04:14:03.922Z,-6.30
2023-02-11T04:16:31.133Z,-6.60
2023-02-11T04:18:58.153Z,-6.50
2023-02-11T04:21:25.034Z,-6.55
2023-02-11T04:23:51.961Z,-6.58
2023-02-11T04:26:18.871Z,-6.43
2023-02-11T04:28:45.713Z,-6.57
2023-02-11T04:31:13.002Z,-6.66
2023-02-11T04:33:39.938Z,-6.49
2023-02-11T04:36:07.318Z,-6.76
2023-02-11T04:38:34.157Z,-6.76
2023-02-11T04:41:00.987Z,-6.52
2023-02-11T04:43:27.872Z,-6.84
2023-02-11T04:45:58.419Z,-6.82
2023-02-11T04:48:25.797Z,-6.78
2023-02-11T04:50:52.732Z,-6.84
2023-02-11T04:53:19.630Z,-6.86
2023-02-11T04:55:50.974Z,-6.75
2023-02-11T04:58:19.735Z,-6.82
2023-02-11T05:00:47.233Z,-6.74
2023-02-11T05:03:14.245Z,-6.70
2023-02-11T05:05:42.531Z,-6.75
2023-02-11T05:08:10.835Z,-6.68
2023-02-11T05:10:37.945Z,-6.84
2023-02-11T05:13:04.899Z,-6.89
2023-02-11T05:15:31.793Z,-6.89
2023-02-11T05:17:58.708Z,-6.94
2023-02-11T05:20:25.644Z,-6.91
2023-02-11T05:22:52.674Z,-6.75
2023-02-11T05:25:20.444Z,-6.79
2023-02-11T05:27:47.334Z,-6.64
2023-02-11T05:30:14.502Z,-6.43
2023-02-11T05:32:41.542Z,-6.32
2023-02-11T05:35:09.543Z,-6.01
2023-02-11T05:37:36.605Z,-5.81
2023-02-11T05:40:04.130Z,-6.16
2023-02-11T05:42:30.984Z,-5.96
2023-02-11T05:44:58.009Z,-5.62
2023-02-11T05:47:24.896Z,-5.62
2023-02-11T05:49:53.734Z,-5.15
2023-02-11T05:52:21.498Z,-4.83
2023-02-11T05:54:48.489Z,-5.09
2023-02-11T05:57:15.793Z,-4.09
2023-02-11T05:59:42.817Z,-3.86
2023-02-11T06:02:10.553Z,-4.52
2023-02-11T06:04:38.079Z,-3.21
2023-02-11T06:07:05.340Z,-2.64
2023-02-11T06:09:32.119Z,-3.68
2023-02-11T06:11:59.068Z,-2.90
2023-02-11T06:14:25.891Z,-1.92
2023-02-11T06:16:52.754Z,-3.45
2023-02-11T06:19:19.616Z,-2.48
2023-02-11T06:21:46.531Z,-1.17
2023-02-11T06:24:13.408Z,-1.95
2023-02-11T06:26:40.389Z,-2.40
2023-02-11T06:29:07.461Z,-0.90
2023-02-11T06:31:34.317Z,-0.50
2023-02-11T06:34:01.254Z,-2.13
2023-02-11T06:36:28.128Z,-0.34
2023-02-11T06:38:55.664Z,0.12
2023-02-11T06:41:22.729Z,-1.40
2023-02-11T06:43:49.763Z,-1.45
2023-02-11T06:46:16.693Z,-0.21
2023-02-11T06:48:44.927Z,2.15
2023-02-11T06:51:13.756Z,-0.61
2023-02-11T06:53:49.715Z,-0.05
2023-02-11T06:56:20.219Z,1.14
2023-02-11T06:58:47.774Z,0.37
2023-02-11T07:01:16.768Z,-0.78
2023-02-11T07:03:45.313Z,0.34
2023-02-11T07:06:15.193Z,1.30
2023-02-11T07:08:43.184Z,-0.42
2023-02-11T07:11:19.176Z,-0.14
2023-02-11T07:13:46.667Z,0.99
2023-02-11T07:16:16.046Z,0.40
2023-02-11T07:18:43.523Z,-0.88
2023-02-11T07:21:13.181Z,0.33
2023-02-11T07:23:41.361Z,1.41
2023-02-11T07:26:13.982Z,0.11
2023-02-11T07:28:41.693Z,0.46
2023-02-11T07:31:13.935Z,1.93
2023-02-11T07:33:41.540Z,1.70
2023-02-11T07:36:10.737Z,-0.10
2023-02-11T07:38:38.097Z,1.89
2023-02-11T07:41:10.341Z,2.82
2023-02-11T07:43:38.804Z,2.42
2023-02-11T07:46:18.135Z,0.87
2023-02-11T07:48:45.310Z,3.27
2023-02-11T07:51:18.189Z,4.34
2023-02-11T07:53:45.741Z,3.62
2023-02-11T07:56:13.936Z,1.23
2023-02-11T07:58:44.462Z,3.60
2023-02-11T08:01:14.701Z,4.14
2023-02-11T08:03:43.197Z,5.84
2023-02-11T08:06:13.525Z,7.47
2023-02-11T08:08:41.192Z,6.50
2023-02-11T08:11:19.916Z,7.77
2023-02-11T08:13:47.150Z,8.46
2023-02-11T08:16:24.008Z,7.52
2023-02-11T08:18:51.626Z,8.38
2023-02-11T08:21:19.603Z,8.44
2023-02-11T08:23:46.911Z,8.95
2023-02-11T08:26:17.390Z,7.95
2023-02-11T08:28:45.616Z,8.53
2023-02-11T08:31:19.114Z,8.52
2023-02-11T08:33:46.642Z,8.46
2023-02-11T08:36:19.550Z,8.41
2023-02-11T08:38:47.061Z,9.76
2023-02-11T08:41:16.936Z,9.49
2023-02-11T08:43:45.469Z,11.00
2023-02-11T08:46:16.330Z,9.45
2023-02-11T08:48:45.123Z,9.12
2023-02-11T08:51:18.689Z,9.34
2023-02-11T08:53:46.190Z,8.13
2023-02-11T08:56:15.657Z,5.31
2023-02-11T08:58:43.388Z,6.99
2023-02-11T09:01:15.602Z,7.82
2023-02-11T09:03:42.649Z,8.34
2023-02-11T09:06:10.932Z,9.41
2023-02-11T09:08:40.115Z,10.07
2023-02-11T09:11:07.539Z,10.05
2023-02-11T09:13:34.502Z,9.89
2023-02-11T09:16:02.903Z,10.63
2023-02-11T09:18:30.124Z,11.13
2023-02-11T09:21:05.241Z,10.76
2023-02-11T09:23:34.496Z,11.08
2023-02-11T09:26:14.598Z,11.96
2023-02-11T09:28:41.415Z,12.31
2023-02-11T09:31:10.241Z,10.49
2023-02-11T09:33:38.859Z,10.78
2023-02-11T09:36:06.596Z,11.04
2023-02-11T09:38:33.844Z,10.70
2023-02-11T09:41:04.175Z,10.13
2023-02-11T09:43:43.562Z,11.51
2023-02-11T09:46:14.902Z,13.15
2023-02-11T09:48:44.203Z,11.43
2023-02-11T09:52:03.856Z,11.44
2023-02-11T09:54:48.189Z,11.92
2023-02-11T09:57:27.861Z,11.39
2023-02-11T09:59:56.748Z,11.20
2023-02-11T10:02:45.106Z,8.00
2023-02-11T10:05:40.934Z,6.92
2023-02-11T10:08:22.746Z,8.10
2023-02-11T10:11:01.011Z,6.19
2023-02-11T10:13:36.277Z,9.24
2023-02-11T10:16:08.834Z,9.57
2023-02-11T10:19:11.268Z,7.20
2023-02-11T10:21:46.643Z,8.83
2023-02-11T10:24:16.368Z,11.86
2023-02-11T10:26:45.523Z,12.99
2023-02-11T10:29:38.599Z,10.64
2023-02-11T10:32:26.690Z,8.82
2023-02-11T10:34:58.873Z,9.64
2023-02-11T10:37:25.737Z,11.92
2023-02-11T10:39:52.644Z,12.68
2023-02-11T10:42:19.483Z,13.12
2023-02-11T10:44:58.065Z,10.77
2023-02-11T10:47:30.278Z,9.04
2023-02-11T10:50:03.352Z,10.59
2023-02-11T10:52:30.930Z,10.29
2023-02-11T10:55:03.970Z,10.95
2023-02-11T10:57:44.697Z,10.04
2023-02-11T11:00:17.887Z,9.09
2023-02-11T11:02:46.858Z,11.42
2023-02-11T11:05:20.015Z,11.14
2023-02-11T11:08:08.973Z,12.04
2023-02-11T11:10:46.053Z,10.20
2023-02-11T11:13:28.181Z,8.62
2023-02-11T11:16:15.672Z,11.76
2023-02-11T11:18:45.263Z,11.80
2023-02-11T11:21:41.432Z,11.91
2023-02-11T11:24:34.855Z,9.98
2023-02-11T11:27:04.478Z,7.95
2023-02-11T11:29:39.675Z,10.52
2023-02-11T11:32:37.248Z,10.73
2023-02-11T11:35:09.732Z,14.71
2023-02-11T11:37:37.934Z,10.72
2023-02-11T11:40:10.909Z,9.53
2023-02-11T11:42:39.512Z,10.35
2023-02-11T11:45:23.453Z,12.48
2023-02-11T11:48:16.417Z,13.64
2023-02-11T11:50:47.700Z,11.88
2023-02-11T11:53:37.616Z,9.63
2023-02-11T11:56:09.746Z,10.92
2023-02-11T11:58:37.255Z,13.37
2023-02-11T12:01:25.869Z,11.62
2023-02-11T12:04:20.984Z,11.23
2023-02-11T12:07:25.405Z,10.73
2023-02-11T12:10:14.440Z,11.36
2023-02-11T12:13:13.736Z,10.81
2023-02-11T12:16:03.179Z,10.34
2023-02-11T12:18:51.002Z,8.16
2023-02-11T12:21:37.870Z,8.48
2023-02-11T12:24:16.310Z,9.22
2023-02-11T12:27:02.084Z,7.33
2023-02-11T12:29:28.860Z,7.09
2023-02-11T12:32:33.534Z,7.03
2023-02-11T12:35:16.158Z,6.77
2023-02-11T12:38:04.294Z,6.69
2023-02-11T12:40:37.126Z,6.35
2023-02-11T12:43:22.383Z,5.39
2023-02-11T12:46:04.587Z,5.58
2023-02-11T12:48:49.418Z,5.71
2023-02-11T12:51:34.836Z,5.28
2023-02-11T12:54:11.076Z,5.12
2023-02-11T12:56:48.797Z,5.29
2023-02-11T12:59:29.358Z,5.39
2023-02-11T13:01:59.773Z,5.21
2023-02-11T13:04:40.333Z,5.24
2023-02-11T13:07:19.559Z,5.26
2023-02-11T13:09:55.561Z,5.16
2023-02-11T13:12:42.611Z,5.26
2023-02-11T13:15:15.096Z,5.20
2023-02-11T13:18:25.831Z,4.73
2023-02-11T13:20:58.515Z,4.87
2023-02-11T13:23:43.942Z,4.98
2023-02-11T13:26:10.740Z,4.97
2023-02-11T13:28:57.278Z,4.95
2023-02-11T13:31:27.528Z,5.04
2023-02-11T13:33:54.573Z,5.23
2023-02-11T13:36:32.856Z,5.20
2023-02-11T13:39:08.044Z,5.14
2023-02-11T13:41:41.921Z,5.01
2023-02-11T13:44:08.690Z,4.92
2023-02-11T13:46:56.195Z,5.03
2023-02-11T13:49:29.957Z,4.98
2023-02-11T13:51:57.918Z,5.07
2023-02-11T13:54:32.447Z,4.86
2023-02-11T13:57:33.752Z,4.63
2023-02-11T14:00:27.380Z,4.73
2023-02-11T14:03:31.348Z,4.66
2023-02-11T14:06:29.178Z,4.37
2023-02-11T14:09:09.463Z,4.40
2023-02-11T14:12:24.931Z,4.70
2023-02-11T14:15:18.667Z,4.82
2023-02-11T14:17:45.603Z,4.77
2023-02-11T14:20:33.914Z,4.56
2023-02-11T14:23:04.807Z,4.60
2023-02-11T14:25:32.325Z,4.65
2023-02-11T14:28:16.738Z,4.77
2023-02-11T14:31:11.507Z,4.24
2023-02-11T14:34:06.807Z,4.38
2023-02-11T14:36:58.706Z,4.46
2023-02-11T14:39:45.324Z,3.72
2023-02-11T14:42:20.969Z,3.64
2023-02-11T14:44:52.378Z,3.68
2023-02-11T14:47:23.884Z,3.56
2023-02-11T14:49:50.997Z,3.45
2023-02-11T14:52:26.793Z,3.50
2023-02-11T14:55:05.279Z,3.67
2023-02-11T14:57:33.522Z,3.43
2023-02-11T15:00:04.018Z,3.17
2023-02-11T15:02:37.612Z,3.38
2023-02-11T15:05:27.574Z,3.14
2023-02-11T15:08:00.877Z,2.89
2023-02-11T15:10:43.414Z,2.86
2023-02-11T15:13:19.150Z,2.95
2023-02-11T15:30:31.693Z,2.24
2023-02-11T15:33:02.883Z,2.54
2023-02-11T15:35:33.176Z,2.71
2023-02-11T15:38:00.384Z,2.81
2023-02-11T15:40:29.909Z,2.63
2023-02-11T15:43:06.136Z,2.50
2023-02-11T15:45:40.547Z,2.51
2023-02-11T15:48:15.883Z,2.36
2023-02-11T15:50:48.795Z,2.31
2023-02-11T15:53:24.806Z,2.33
2023-02-11T15:55:54.245Z,2.27
2023-02-11T15:58:22.884Z,2.11
2023-02-11T16:00:54.829Z,1.98
2023-02-11T16:03:28.917Z,2.01
2023-02-11T16:05:56.677Z,2.00
2023-02-11T16:08:29.365Z,1.81
2023-02-11T16:11:03.365Z,1.85
2023-02-11T16:13:34.722Z,1.87
2023-02-11T16:16:05.078Z,1.86
2023-02-11T16:18:39.974Z,1.62
2023-02-11T16:21:16.838Z,1.65
2023-02-11T16:23:50.944Z,1.70
2023-02-11T16:26:37.527Z,1.67
2023-02-11T16:29:13.172Z,1.53
2023-02-11T16:31:46.311Z,1.52
2023-02-11T16:34:19.251Z,1.54
2023-02-11T16:36:47.340Z,1.30
2023-02-11T16:39:14.549Z,1.29
2023-02-11T16:41:41.446Z,1.37
2023-02-11T16:44:08.655Z,1.36
2023-02-11T16:46:37.562Z,1.36
2023-02-11T16:49:22.447Z,1.43
2023-02-11T16:51:50.603Z,1.48
2023-02-11T16:54:19.356Z,1.41
2023-02-11T16:56:46.517Z,1.37
2023-02-11T16:59:13.511Z,1.35
2023-02-11T17:01:42.566Z,1.34
2023-02-11T17:04:31.273Z,1.16
2023-02-11T17:06:58.755Z,1.10
2023-02-11T17:09:30.624Z,1.13
2023-02-11T17:11:58.178Z,1.00
2023-02-11T17:14:25.086Z,1.02
2023-02-11T17:16:52.060Z,0.93
2023-02-11T17:19:21.160Z,0.79
2023-02-11T17:21:50.357Z,0.71
2023-02-11T17:24:17.946Z,0.64
2023-02-11T17:26:45.685Z,0.66
2023-02-11T17:29:15.301Z,0.61
2023-02-11T17:31:42.379Z,0.52
2023-02-11T17:34:09.863Z,0.54
2023-02-11T17:36:36.755Z,0.51
2023-02-11T17:39:07.812Z,0.32
2023-02-11T17:41:37.585Z,0.42
2023-02-11T17:44:04.916Z,0.42
2023-02-11T17:46:32.447Z,0.26
2023-02-11T17:48:59.850Z,0.20
2023-02-11T17:51:30.032Z,0.11
2023-02-11T17:54:02.120Z,0.11
2023-02-11T17:56:31.439Z,0.07
2023-02-11T17:58:58.316Z,-0.11
2023-02-11T18:01:29.816Z,-0.07
2023-02-11T18:03:56.786Z,-0.12
2023-02-11T18:06:24.055Z,-0.17
2023-02-11T18:08:51.072Z,-0.12
2023-02-11T18:11:18.307Z,-0.24
2023-02-11T18:13:45.643Z,-0.18
2023-02-11T18:16:15.920Z,-0.08
2023-02-11T18:18:45.966Z,-0.28
2023-02-11T18:21:15.107Z,-0.35
2023-02-11T18:23:42.762Z,-0.38
2023-02-11T18:26:12.023Z,-0.40
2023-02-11T18:28:39.423Z,-0.35
2023-02-11T18:31:08.619Z,-0.51
2023-02-11T18:33:37.763Z,-0.46
2023-02-11T18:36:09.571Z,-0.37
2023-02-11T18:38:36.656Z,-0.51
2023-02-11T18:41:04.109Z,-0.53
2023-02-11T18:43:33.727Z,-0.62
2023-02-11T18:46:02.302Z,-0.64
2023-02-11T18:48:29.224Z,-0.61
2023-02-11T18:50:56.263Z,-0.71
2023-02-11T18:53:24.705Z,-0.74
2023-02-11T18:55:52.958Z,-0.71
2023-02-11T18:58:21.411Z,-0.81
2023-02-11T19:00:50.063Z,-0.78
2023-02-11T19:03:17.382Z,-0.73
2023-02-11T19:05:46.134Z,-0.77
2023-02-11T19:08:13.657Z,-0.81
2023-02-11T19:10:42.225Z,-0.73
2023-02-11T19:13:09.782Z,-0.85
2023-02-11T19:15:46.906Z,-0.87
2023-02-11T19:18:15.899Z,-0.95
2023-02-11T19:20:44.042Z,-1.03
2023-02-11T19:23:11.376Z,-0.98
2023-02-11T19:25:45.448Z,-1.18
2023-02-11T19:28:13.274Z,-1.19
2023-02-11T19:30:40.484Z,-1.22
2023-02-11T19:33:10.029Z,-1.26
2023-02-11T19:35:37.189Z,-1.24
2023-02-11T19:38:05.302Z,-1.27
2023-02-11T19:40:32.723Z,-1.34
2023-02-11T19:42:59.899Z,-1.30
2023-02-11T19:45:27.066Z,-1.37
2023-02-11T19:47:57.174Z,-1.26
2023-02-11T19:50:24.990Z,-1.28
2023-02-11T19:52:51.917Z,-1.36
2023-02-11T19:55:18.923Z,-1.38
2023-02-11T19:57:45.945Z,-1.49
2023-02-11T20:00:13.351Z,-1.37
2023-02-11T20:02:41.040Z,-1.43
2023-02-11T20:05:08.601Z,-1.43
2023-02-11T20:07:35.567Z,-1.54
2023-02-11T20:10:02.589Z,-1.54
2023-02-11T20:12:29.664Z,-1.46
2023-02-11T20:14:56.440Z,-1.53
2023-02-11T20:17:23.415Z,-1.51
2023-02-11T20:19:50.363Z,-1.57
2023-02-11T20:22:17.202Z,-1.59
2023-02-11T20:24:44.066Z,-1.51
2023-02-11T20:27:11.820Z,-1.60
2023-02-11T20:29:40.282Z,-1.59
2023-02-11T20:32:07.576Z,-1.61
2023-02-11T20:34:34.853Z,-1.64
2023-02-11T20:37:03.090Z,-1.72
2023-02-11T20:39:30.202Z,-1.82
2023-02-11T20:41:58.177Z,-1.70
2023-02-11T20:44:25.102Z,-1.73
2023-02-11T20:46:53.970Z,-1.74
2023-02-11T20:49:23.906Z,-1.69
2023-02-11T20:51:52.569Z,-1.79
2023-02-11T20:54:21.155Z,-1.66
2023-02-11T20:56:51.291Z,-1.68
2023-02-11T20:59:19.650Z,-1.67
2023-02-11T21:01:53.644Z,-1.64
2023-02-11T21:04:31.113Z,-1.72
2023-02-11T21:07:00.154Z,-1.59
2023-02-11T21:09:30.429Z,-1.74
2023-02-11T21:11:57.616Z,-1.64
2023-02-11T21:14:25.638Z,-1.67
2023-02-11T21:16:52.879Z,-1.65
2023-02-11T21:19:20.425Z,-1.55
2023-02-11T21:21:47.737Z,-1.56
2023-02-11T21:24:14.777Z,-1.69
2023-02-11T21:26:41.907Z,-1.63
2023-02-11T21:29:09.534Z,-1.62
2023-02-11T21:31:37.851Z,-1.67
2023-02-11T21:34:05.303Z,-1.55
2023-02-11T21:36:32.285Z,-1.66
2023-02-11T21:39:00.204Z,-1.80
2023-02-11T21:41:27.613Z,-1.72
2023-02-11T21:43:54.733Z,-1.67
2023-02-11T21:46:22.203Z,-1.70
2023-02-11T21:48:49.548Z,-1.59
2023-02-11T21:51:22.848Z,-1.52
2023-02-11T21:53:53.960Z,-1.53
2023-02-11T21:56:21.282Z,-1.46
2023-02-11T21:58:52.317Z,-1.52
2023-02-11T22:01:22.885Z,-1.53
2023-02-11T22:03:50.022Z,-1.45
2023-02-11T22:06:26.998Z,-1.46
2023-02-11T22:08:55.322Z,-1.42
2023-02-11T22:11:22.493Z,-1.27
2023-02-11T22:13:54.055Z,-1.28
2023-02-11T22:16:21.112Z,-1.26
2023-02-11T22:18:48.117Z,-1.15
2023-02-11T22:21:20.847Z,-1.24
2023-02-11T22:23:48.271Z,-1.17
2023-02-11T22:26:17.904Z,-1.10
2023-02-11T22:28:45.147Z,-1.14
2023-02-11T22:31:17.978Z,-0.98
2023-02-11T22:33:45.394Z,-0.87
2023-02-11T22:36:28.952Z,-1.09
2023-02-11T22:38:59.565Z,-1.03
2023-02-11T22:41:26.585Z,-1.03
2023-02-11T22:43:53.488Z,-1.18
2023-02-11T22:46:20.577Z,-0.97
2023-02-11T22:48:48.015Z,-0.83
2023-02-11T22:51:19.500Z,-1.09
2023-02-11T22:53:55.496Z,-1.00
2023-02-11T22:56:23.466Z,-0.94
2023-02-11T22:58:51.434Z,-1.04
2023-02-11T23:01:18.427Z,-0.98
2023-02-11T23:03:46.212Z,-1.01
2023-02-11T23:06:13.429Z,-1.08
2023-02-11T23:08:41.042Z,-1.00
2023-02-11T23:11:24.078Z,-1.02
2023-02-11T23:13:52.408Z,-0.97
2023-02-11T23:16:25.601Z,-0.82
2023-02-11T23:18:53.097Z,-0.81
2023-02-11T23:21:29.754Z,-0.83
2023-02-11T23:24:01.731Z,-0.86
2023-02-11T23:26:29.071Z,-0.98
2023-02-11T23:28:57.371Z,-1.04
2023-02-11T23:31:34.426Z,-0.96
2023-02-11T23:34:01.835Z,-0.97
2023-02-11T23:36:29.295Z,-0.96
2023-02-11T23:38:56.520Z,-0.85
2023-02-11T23:41:24.019Z,-0.86
2023-02-11T23:43:52.738Z,-0.92
2023-02-11T23:46:21.902Z,-0.77
2023-02-11T23:48:49.487Z,-0.93
2023-02-11T23:51:17.020Z,-0.92
2023-02-11T23:53:45.982Z,-0.68
2023-02-11T23:56:18.570Z,-1.11
2023-02-11T23:58:48.608Z,-1.12
